Time;durP1;ratioP1;P1;durP2;ratioP2;P2;SDS_P1;SDS_P2;PMS_P1;PMS_P2;Temp;Humidity;BMP_temperature;BMP_pressure;BME280_temperature;BME280_humidity;BME280_pressure;Samples;Min_cycle;Max_cycle;Signal;HPM_P1;HPM_P2
2023/10/21 00:00:19;;;;;;;0.57;0.57;;;;;;;;;;1037207;28;20022;-73
2023/10/21 00:00:49;;;;;;;2.05;1.25;;;;;;;;;;1037551;28;20025;-73
2023/10/21 00:01:20;;;;;;;2.45;1.00;;;;;;;;;;1037343;28;20022;-73
2023/10/21 00:01:50;;;;;;;0.10;0.10;;;;;;;;;;1037654;28;20029;-73
2023/10/21 00:02:21;;;;;;;5.30;1.58;;;;;;;;;;1035703;28;20121;-73
2023/10/21 00:02:51;;;;;;;3.03;1.52;;;;;;;;;;1036187;28;20025;-73
2023/10/21 00:03:22;;;;;;;1.35;1.25;;;;;;;;;;1035720;28;20500;-73
2023/10/21 00:03:52;;;;;;;1.85;0.77;;;;;;;;;;1036127;28;20080;-72
2023/10/21 00:04:23;;;;;;;3.92;2.58;;;;;;;;;;1035733;28;20033;-73
2023/10/21 00:04:53;;;;;;;0.95;0.77;;;;;;;;;;1035916;28;20068;-73
2023/10/21 00:05:25;;;;;;;1.08;1.05;;;;;;;;;;1034996;28;20025;-74
2023/10/21 00:05:55;;;;;;;1.17;1.10;;;;;;;;;;1035197;28;20443;-73
2023/10/21 00:06:26;;;;;;;0.85;0.82;;;;;;;;;;1038508;28;20025;-73
2023/10/21 00:06:56;;;;;;;2.15;0.75;;;;;;;;;;1036772;28;20021;-73
2023/10/21 00:07:27;;;;;;;12.27;2.28;;;;;;;;;;1032212;28;20053;-73
2023/10/21 00:07:57;;;;;;;0.80;0.80;;;;;;;;;;1030672;28;20124;-73
2023/10/21 00:08:28;;;;;;;1.23;1.20;;;;;;;;;;1031205;28;20092;-73
2023/10/21 00:08:59;;;;;;;11.07;4.20;;;;;;;;;;1031480;28;20025;-73
2023/10/21 00:09:29;;;;;;;1.45;1.38;;;;;;;;;;1035507;28;20099;-73
2023/10/21 00:10:00;;;;;;;1.38;1.23;;;;;;;;;;1035625;28;20510;-73
2023/10/21 00:10:30;;;;;;;1.65;1.55;;;;;;;;;;1033615;28;20081;-73
2023/10/21 00:11:03;;;;;;;0.50;0.50;;;;;;;;;;1033748;28;20026;-73
2023/10/21 00:11:34;;;;;;;2.90;2.28;;;;;;;;;;1037614;28;20014;-73
2023/10/21 00:12:07;;;;;;;1.73;1.63;;;;;;;;;;1037246;28;20018;-73
2023/10/21 00:12:38;;;;;;;2.72;2.50;;;;;;;;;;1035077;28;20174;-73
2023/10/21 00:13:10;;;;;;;0.65;0.65;;;;;;;;;;1035891;28;20021;-73
2023/10/21 00:13:40;;;;;;;2.38;2.20;;;;;;;;;;1037585;28;20034;-73
2023/10/21 00:14:11;;;;;;;2.53;2.33;;;;;;;;;;1037211;28;20029;-73
2023/10/21 00:14:41;;;;;;;1.40;1.30;;;;;;;;;;1037353;28;20017;-73
2023/10/21 00:15:12;;;;;;;0.73;0.63;;;;;;;;;;1037730;28;20091;-73
2023/10/21 00:15:42;;;;;;;1.45;0.82;;;;;;;;;;1035977;28;20053;-73
2023/10/21 00:16:15;;;;;;;1.10;1.05;;;;;;;;;;1035775;28;20032;-73
2023/10/21 00:16:46;;;;;;;0.63;0.63;;;;;;;;;;1035898;28;20018;-73
2023/10/21 00:17:16;;;;;;;3.05;2.88;;;;;;;;;;1035703;28;20401;-73
2023/10/21 00:17:47;;;;;;;1.73;1.63;;;;;;;;;;1035261;28;20030;-73
2023/10/21 00:18:18;;;;;;;2.35;2.15;;;;;;;;;;1035882;28;20474;-73
2023/10/21 00:18:48;;;;;;;5.50;2.65;;;;;;;;;;1036119;28;20025;-73
2023/10/21 00:19:19;;;;;;;4.57;2.67;;;;;;;;;;1037221;28;20021;-73
2023/10/21 00:19:50;;;;;;;3.15;0.90;;;;;;;;;;1037639;28;20053;-73
2023/10/21 00:20:21;;;;;;;1.98;1.30;;;;;;;;;;1036729;28;20022;-73
2023/10/21 00:20:53;;;;;;;7.40;1.70;;;;;;;;;;1036143;28;20013;-73
2023/10/21 00:21:24;;;;;;;1.10;0.90;;;;;;;;;;1034583;28;20045;-73
2023/10/21 00:21:54;;;;;;;0.63;0.63;;;;;;;;;;1037370;28;20022;-73
2023/10/21 00:22:25;;;;;;;1.73;1.60;;;;;;;;;;1037534;28;20148;-73
2023/10/21 00:22:56;;;;;;;6.25;1.17;;;;;;;;;;1035380;28;20428;-73
2023/10/21 00:23:26;;;;;;;1.50;1.40;;;;;;;;;;1033187;28;20032;-73
2023/10/21 00:23:57;;;;;;;3.10;1.23;;;;;;;;;;1035440;28;20049;-73
2023/10/21 00:24:27;;;;;;;4.57;1.00;;;;;;;;;;1035320;28;20033;-73
2023/10/21 00:24:58;;;;;;;1.63;1.15;;;;;;;;;;1035778;28;20025;-73
2023/10/21 00:25:29;;;;;;;1.45;1.13;;;;;;;;;;1035577;28;20405;-73
2023/10/21 00:26:02;;;;;;;9.27;2.90;;;;;;;;;;1035536;28;20029;-73
2023/10/21 00:26:47;;;;;;;11.57;1.75;;;;;;;;;;1035497;28;20297;-73
2023/10/21 00:27:17;;;;;;;0.80;0.80;;;;;;;;;;1034655;28;20014;-73
2023/10/21 00:27:48;;;;;;;2.08;1.98;;;;;;;;;;1031258;28;20030;-73
2023/10/21 00:28:19;;;;;;;1.65;1.27;;;;;;;;;;1031177;28;20088;-73
2023/10/21 00:28:49;;;;;;;1.05;1.05;;;;;;;;;;1031463;28;20097;-75
2023/10/21 00:29:20;;;;;;;0.80;0.80;;;;;;;;;;1034896;28;20136;-73
2023/10/21 00:29:50;;;;;;;3.17;2.97;;;;;;;;;;1035644;28;20021;-73
2023/10/21 00:30:22;;;;;;;0.73;0.73;;;;;;;;;;1035663;28;20577;-73
2023/10/21 00:30:53;;;;;;;0.98;0.98;;;;;;;;;;1035844;28;20070;-73
2023/10/21 00:31:23;;;;;;;0.80;0.80;;;;;;;;;;1035588;28;20044;-73
2023/10/21 00:31:54;;;;;;;3.25;2.30;;;;;;;;;;1035882;28;20018;-73
2023/10/21 00:32:24;;;;;;;1.17;1.08;;;;;;;;;;1035207;28;20056;-73
2023/10/21 00:32:55;;;;;;;0.30;0.30;;;;;;;;;;1035209;28;20034;-73
2023/10/21 00:33:25;;;;;;;15.15;1.85;;;;;;;;;;1032936;28;20085;-73
2023/10/21 00:33:56;;;;;;;0.85;0.85;;;;;;;;;;1033584;28;20092;-73
2023/10/21 00:34:26;;;;;;;0.30;0.30;;;;;;;;;;1033269;28;20437;-73
2023/10/21 00:34:57;;;;;;;2.88;1.98;;;;;;;;;;1035349;28;20025;-73
2023/10/21 00:35:27;;;;;;;15.05;2.50;;;;;;;;;;1035152;28;20084;-73
2023/10/21 00:35:58;;;;;;;0.50;0.50;;;;;;;;;;1035067;28;20030;-73
2023/10/21 00:36:28;;;;;;;1.75;1.40;;;;;;;;;;1035326;28;20022;-73
2023/10/21 00:36:59;;;;;;;1.88;1.75;;;;;;;;;;1036671;28;20049;-73
2023/10/21 00:37:29;;;;;;;0.47;0.47;;;;;;;;;;1037278;28;20476;-73
2023/10/21 00:38:00;;;;;;;0.68;0.68;;;;;;;;;;1037441;28;20033;-73
2023/10/21 00:38:30;;;;;;;0.28;0.28;;;;;;;;;;1037522;28;20481;-73
2023/10/21 00:39:01;;;;;;;0.63;0.63;;;;;;;;;;1035764;28;20032;-73
2023/10/21 00:39:34;;;;;;;0.75;0.75;;;;;;;;;;1035763;28;20018;-73
2023/10/21 00:40:06;;;;;;;0.35;0.35;;;;;;;;;;1035535;28;20030;-73
2023/10/21 00:40:36;;;;;;;1.52;1.42;;;;;;;;;;1034942;28;20026;-73
2023/10/21 00:41:07;;;;;;;3.30;2.47;;;;;;;;;;1035692;28;20026;-73
2023/10/21 00:41:38;;;;;;;1.27;1.20;;;;;;;;;;1035591;28;20053;-73
2023/10/21 00:42:08;;;;;;;0.40;0.40;;;;;;;;;;1035463;28;20831;-73
2023/10/21 00:42:39;;;;;;;6.25;2.35;;;;;;;;;;1036258;28;20013;-73
2023/10/21 00:43:10;;;;;;;2.05;1.85;;;;;;;;;;1037096;28;20033;-73
2023/10/21 00:43:40;;;;;;;1.25;0.93;;;;;;;;;;1037587;28;20485;-73
2023/10/21 00:44:11;;;;;;;1.63;1.33;;;;;;;;;;1037975;28;20063;-73
2023/10/21 00:44:42;;;;;;;1.65;1.55;;;;;;;;;;1034819;28;20065;-73
2023/10/21 00:45:12;;;;;;;1.90;1.80;;;;;;;;;;1035522;28;20497;-73
2023/10/21 00:45:43;;;;;;;0.20;0.20;;;;;;;;;;1035715;28;20052;-73
2023/10/21 00:46:19;;;;;;;4.53;2.45;;;;;;;;;;1035391;28;20477;-73
2023/10/21 00:46:50;;;;;;;0.60;0.60;;;;;;;;;;1035238;28;20018;-73
2023/10/21 00:47:20;;;;;;;3.78;3.42;;;;;;;;;;1035331;28;20025;-73
2023/10/21 00:47:51;;;;;;;0.77;0.77;;;;;;;;;;1035682;28;20044;-73
2023/10/21 00:48:21;;;;;;;4.38;1.48;;;;;;;;;;1035578;28;20030;-73
2023/10/21 00:48:52;;;;;;;2.15;2.03;;;;;;;;;;1035660;28;20477;-73
2023/10/21 00:49:23;;;;;;;1.20;1.13;;;;;;;;;;1035537;28;20030;-73
2023/10/21 00:49:53;;;;;;;3.30;2.58;;;;;;;;;;1035690;28;20072;-73
2023/10/21 00:50:24;;;;;;;1.00;1.00;;;;;;;;;;1037024;28;20033;-73
2023/10/21 00:50:54;;;;;;;2.15;1.90;;;;;;;;;;1035633;28;20051;-73
2023/10/21 00:51:25;;;;;;;0.82;0.82;;;;;;;;;;1037646;28;20371;-73
2023/10/21 00:51:56;;;;;;;0.35;0.35;;;;;;;;;;1037575;28;20474;-73
2023/10/21 00:52:27;;;;;;;1.38;0.55;;;;;;;;;;1038972;28;20021;-73
2023/10/21 00:52:57;;;;;;;4.07;2.33;;;;;;;;;;1037564;28;20025;-73
2023/10/21 00:53:29;;;;;;;0.50;0.50;;;;;;;;;;1037350;28;20425;-73
2023/10/21 00:54:00;;;;;;;0.57;0.57;;;;;;;;;;1034213;28;20095;-73
2023/10/21 00:54:31;;;;;;;2.42;1.45;;;;;;;;;;1033046;28;20525;-73
2023/10/21 00:55:02;;;;;;;0.88;0.50;;;;;;;;;;1032463;28;20033;-73
2023/10/21 00:55:32;;;;;;;5.40;1.25;;;;;;;;;;1034360;28;20045;-73
2023/10/21 00:56:03;;;;;;;0.52;0.52;;;;;;;;;;1035563;28;20057;-73
2023/10/21 00:56:34;;;;;;;2.20;1.17;;;;;;;;;;1037530;28;20068;-73
2023/10/21 00:57:04;;;;;;;3.60;2.03;;;;;;;;;;1037519;28;20061;-73
2023/10/21 00:57:36;;;;;;;1.02;0.95;;;;;;;;;;1036617;28;20395;-73
2023/10/21 00:58:07;;;;;;;5.07;1.38;;;;;;;;;;1035336;28;20387;-73
2023/10/21 00:58:37;;;;;;;0.45;0.45;;;;;;;;;;1035184;28;20056;-73
2023/10/21 00:59:08;;;;;;;1.55;1.33;;;;;;;;;;1035065;28;20026;-73
2023/10/21 00:59:40;;;;;;;0.50;0.50;;;;;;;;;;1035340;28;20615;-73
2023/10/21 01:00:11;;;;;;;1.48;1.38;;;;;;;;;;1035316;28;20036;-73
2023/10/21 01:00:42;;;;;;;4.72;2.58;;;;;;;;;;1035438;28;20052;-73
2023/10/21 01:01:13;;;;;;;1.10;1.10;;;;;;;;;;1035723;28;20446;-73
2023/10/21 01:02:18;;;;;;;31.20;2.30;;;;;;;;;;1037858;28;20372;-72
2023/10/21 01:02:49;;;;;;;0.50;0.50;;;;;;;;;;1039357;28;20032;-73
2023/10/21 01:03:22;;;;;;;0.73;0.73;;;;;;;;;;1039539;28;20112;-73
2023/10/21 01:03:52;;;;;;;0.57;0.57;;;;;;;;;;1039911;28;20457;-73
2023/10/21 01:04:24;;;;;;;0.88;0.88;;;;;;;;;;1039073;28;20477;-73
2023/10/21 01:04:55;;;;;;;3.55;3.25;;;;;;;;;;1039778;28;20025;-73
2023/10/21 01:05:25;;;;;;;2.63;1.58;;;;;;;;;;1043086;28;20112;-73
2023/10/21 01:05:56;;;;;;;5.22;4.35;;;;;;;;;;1042133;28;20120;-73
2023/10/21 01:06:27;;;;;;;1.00;0.98;;;;;;;;;;1039684;28;20025;-73
2023/10/21 01:06:57;;;;;;;1.77;0.80;;;;;;;;;;1040016;28;20494;-73
2023/10/21 01:07:28;;;;;;;2.58;0.95;;;;;;;;;;1038553;28;20025;-73
2023/10/21 01:07:59;;;;;;;3.53;3.20;;;;;;;;;;1038691;28;20033;-73
2023/10/21 01:08:30;;;;;;;1.27;1.00;;;;;;;;;;1038042;28;20017;-73
2023/10/21 01:09:00;;;;;;;0.93;0.82;;;;;;;;;;1041937;28;20030;-73
2023/10/21 01:09:31;;;;;;;1.55;1.45;;;;;;;;;;1041832;28;20473;-73
2023/10/21 01:10:05;;;;;;;1.73;1.63;;;;;;;;;;1041573;28;20554;-73
2023/10/21 01:10:35;;;;;;;1.45;1.35;;;;;;;;;;1041629;28;20042;-73
2023/10/21 01:11:06;;;;;;;0.57;0.57;;;;;;;;;;1043385;28;20055;-73
2023/10/21 01:11:37;;;;;;;1.98;1.00;;;;;;;;;;1043239;28;20107;-73
2023/10/21 01:12:07;;;;;;;2.65;2.03;;;;;;;;;;1043119;28;20067;-75
2023/10/21 01:12:39;;;;;;;1.15;1.13;;;;;;;;;;1042210;28;20095;-75
2023/10/21 01:13:10;;;;;;;1.88;1.77;;;;;;;;;;1038811;28;20114;-73
2023/10/21 01:13:43;;;;;;;0.52;0.52;;;;;;;;;;1037055;28;20095;-76
2023/10/21 01:14:14;;;;;;;17.70;3.97;;;;;;;;;;1036183;28;20037;-73
2023/10/21 01:14:44;;;;;;;2.20;1.67;;;;;;;;;;1038803;28;20025;-73
2023/10/21 01:15:15;;;;;;;2.35;1.52;;;;;;;;;;1037817;28;20037;-73
2023/10/21 01:15:45;;;;;;;2.15;1.98;;;;;;;;;;1041661;28;20020;-75
2023/10/21 01:16:16;;;;;;;0.40;0.40;;;;;;;;;;1042724;28;20028;-75
2023/10/21 01:16:46;;;;;;;6.40;2.47;;;;;;;;;;1037313;28;20726;-73
2023/10/21 01:17:17;;;;;;;0.63;0.63;;;;;;;;;;1036701;28;20088;-73
2023/10/21 01:17:48;;;;;;;0.68;0.68;;;;;;;;;;1036084;28;20574;-73
2023/10/21 01:18:19;;;;;;;10.38;2.70;;;;;;;;;;1034392;28;20033;-73
2023/10/21 01:18:50;;;;;;;12.95;4.80;;;;;;;;;;1030778;28;20393;-73
2023/10/21 01:19:20;;;;;;;2.92;2.33;;;;;;;;;;1030859;28;20375;-73
2023/10/21 01:19:51;;;;;;;6.90;2.75;;;;;;;;;;1026844;28;20117;-73
2023/10/21 01:20:21;;;;;;;9.30;3.78;;;;;;;;;;1026476;28;20042;-73
2023/10/21 01:20:52;;;;;;;6.55;3.13;;;;;;;;;;1030841;28;20391;-73
2023/10/21 01:21:23;;;;;;;12.50;3.65;;;;;;;;;;1034301;28;20674;-75
2023/10/21 01:21:53;;;;;;;0.75;0.75;;;;;;;;;;1031103;28;20026;-73
2023/10/21 01:22:24;;;;;;;1.38;1.05;;;;;;;;;;1030889;28;20074;-73
2023/10/21 01:22:57;;;;;;;4.90;3.58;;;;;;;;;;1035998;28;20405;-75
2023/10/21 01:23:28;;;;;;;1.90;1.80;;;;;;;;;;1035718;28;20076;-73
2023/10/21 01:23:59;;;;;;;10.98;2.05;;;;;;;;;;1037627;28;20026;-73
2023/10/21 01:24:29;;;;;;;1.38;1.27;;;;;;;;;;1036621;28;20031;-73
2023/10/21 01:25:00;;;;;;;1.05;0.95;;;;;;;;;;1036420;28;20017;-73
2023/10/21 01:25:32;;;;;;;10.98;2.50;;;;;;;;;;1035789;28;20074;-73
2023/10/21 01:26:03;;;;;;;12.65;3.20;;;;;;;;;;1037840;28;20469;-73
2023/10/21 01:26:33;;;;;;;6.18;2.47;;;;;;;;;;1037857;28;20031;-73
2023/10/21 01:27:04;;;;;;;4.82;1.95;;;;;;;;;;1038934;28;20052;-73
2023/10/21 01:27:36;;;;;;;6.75;0.75;;;;;;;;;;1038255;28;20079;-73
2023/10/21 01:28:06;;;;;;;0.70;0.60;;;;;;;;;;1037541;28;20017;-73
2023/10/21 01:28:37;;;;;;;0.95;0.95;;;;;;;;;;1039903;28;20018;-73
2023/10/21 01:29:10;;;;;;;30.60;2.38;;;;;;;;;;1039642;28;20017;-74
2023/10/21 01:29:40;;;;;;;5.40;3.00;;;;;;;;;;1039888;28;20099;-74
2023/10/21 01:30:11;;;;;;;2.70;2.47;;;;;;;;;;1034254;28;20017;-74
2023/10/21 01:30:41;;;;;;;3.20;2.90;;;;;;;;;;1037115;28;20434;-74
2023/10/21 01:31:12;;;;;;;10.63;1.95;;;;;;;;;;1037099;28;20021;-74
2023/10/21 01:31:43;;;;;;;1.45;0.95;;;;;;;;;;1037857;28;20087;-74
2023/10/21 01:32:13;;;;;;;11.73;4.13;;;;;;;;;;1037925;28;20034;-74
2023/10/21 01:32:44;;;;;;;3.30;1.65;;;;;;;;;;1037439;28;20404;-74
2023/10/21 01:33:14;;;;;;;6.65;2.13;;;;;;;;;;1038072;28;20024;-74
2023/10/21 01:33:45;;;;;;;0.25;0.25;;;;;;;;;;1038169;28;20116;-74
2023/10/21 01:34:16;;;;;;;1.60;1.05;;;;;;;;;;1035803;28;20025;-74
2023/10/21 01:34:46;;;;;;;2.47;1.77;;;;;;;;;;1036365;28;20034;-74
2023/10/21 01:35:17;;;;;;;3.55;1.92;;;;;;;;;;1037991;28;20033;-74
2023/10/21 01:35:48;;;;;;;3.20;2.28;;;;;;;;;;1033975;28;20472;-74
2023/10/21 01:36:19;;;;;;;1.75;1.58;;;;;;;;;;1037249;28;20034;-74
2023/10/21 01:36:50;;;;;;;6.80;2.30;;;;;;;;;;1037041;28;20034;-74
2023/10/21 01:37:21;;;;;;;1.95;1.45;;;;;;;;;;1036529;28;20683;-74
2023/10/21 01:37:51;;;;;;;4.18;3.22;;;;;;;;;;1037779;28;20030;-74
2023/10/21 01:38:24;;;;;;;2.13;1.95;;;;;;;;;;1037959;28;20028;-74
2023/10/21 01:38:55;;;;;;;0.77;0.77;;;;;;;;;;1034298;28;20493;-74
2023/10/21 01:39:25;;;;;;;2.15;1.95;;;;;;;;;;1036586;28;20112;-74
2023/10/21 01:39:56;;;;;;;1.02;1.02;;;;;;;;;;1036559;28;20701;-74
2023/10/21 01:40:27;;;;;;;5.00;1.27;;;;;;;;;;1028727;28;20033;-74
2023/10/21 01:40:57;;;;;;;4.97;2.80;;;;;;;;;;1034730;28;20121;-74
2023/10/21 01:41:28;;;;;;;5.10;2.05;;;;;;;;;;1037227;28;20025;-74
2023/10/21 01:41:59;;;;;;;0.20;0.20;;;;;;;;;;1036880;28;20094;-74
2023/10/21 01:42:29;;;;;;;1.35;1.30;;;;;;;;;;1037029;28;20010;-74
2023/10/21 01:43:00;;;;;;;1.17;1.17;;;;;;;;;;1039239;28;20029;-74
2023/10/21 01:43:31;;;;;;;1.30;1.20;;;;;;;;;;1038149;28;20405;-74
2023/10/21 01:44:02;;;;;;;2.95;2.05;;;;;;;;;;1043445;28;20025;-74
2023/10/21 01:44:32;;;;;;;1.20;1.20;;;;;;;;;;1040128;28;20128;-75
2023/10/21 01:45:08;;;;;;;0.73;0.73;;;;;;;;;;1040116;28;20113;-75
2023/10/21 01:45:38;;;;;;;3.25;2.22;;;;;;;;;;1037906;28;20045;-74
2023/10/21 01:46:09;;;;;;;4.68;1.65;;;;;;;;;;1036562;28;20053;-74
2023/10/21 01:46:41;;;;;;;2.72;1.20;;;;;;;;;;1036050;28;20043;-74
2023/10/21 01:47:12;;;;;;;0.22;0.22;;;;;;;;;;1037140;28;20031;-74
2023/10/21 01:47:43;;;;;;;0.75;0.75;;;;;;;;;;1036415;28;20021;-74
2023/10/21 01:48:13;;;;;;;1.10;1.10;;;;;;;;;;1037655;28;20653;-74
2023/10/21 01:48:44;;;;;;;0.43;0.43;;;;;;;;;;1038544;28;20583;-74
2023/10/21 01:49:15;;;;;;;0.55;0.50;;;;;;;;;;1038205;28;20048;-74
2023/10/21 01:49:46;;;;;;;1.55;1.23;;;;;;;;;;1035767;28;20041;-74
2023/10/21 01:50:17;;;;;;;3.05;2.13;;;;;;;;;;1034760;28;20029;-74
2023/10/21 01:50:47;;;;;;;1.30;1.20;;;;;;;;;;1034334;28;20048;-74
2023/10/21 01:51:20;;;;;;;1.50;1.40;;;;;;;;;;1035797;28;20551;-74
2023/10/21 01:51:53;;;;;;;2.45;2.30;;;;;;;;;;1033579;28;20045;-74
2023/10/21 01:52:25;;;;;;;0.57;0.57;;;;;;;;;;1034764;28;20037;-74
2023/10/21 01:52:56;;;;;;;1.20;1.10;;;;;;;;;;1038892;28;20054;-74
2023/10/21 01:53:27;;;;;;;3.45;1.00;;;;;;;;;;1038684;28;20028;-74
2023/10/21 01:53:58;;;;;;;3.80;2.08;;;;;;;;;;1039086;28;20397;-74
2023/10/21 01:54:28;;;;;;;1.27;1.20;;;;;;;;;;1040810;28;20079;-74
2023/10/21 01:54:59;;;;;;;1.02;1.02;;;;;;;;;;1041333;28;20021;-74
2023/10/21 01:55:31;;;;;;;1.08;1.08;;;;;;;;;;1040625;28;20037;-74
2023/10/21 01:56:02;;;;;;;3.42;1.25;;;;;;;;;;1041824;28;20508;-74
2023/10/21 01:56:33;;;;;;;0.93;0.93;;;;;;;;;;1037664;28;20029;-74
2023/10/21 01:57:05;;;;;;;1.05;1.02;;;;;;;;;;1037929;28;20420;-74
2023/10/21 01:57:36;;;;;;;1.10;1.00;;;;;;;;;;1037596;28;20136;-74
2023/10/21 01:58:07;;;;;;;0.55;0.55;;;;;;;;;;1038852;28;20501;-73
2023/10/21 01:58:39;;;;;;;0.47;0.45;;;;;;;;;;1034059;28;20109;-74
2023/10/21 01:59:14;;;;;;;1.85;1.67;;;;;;;;;;1034344;28;20492;-74
2023/10/21 01:59:46;;;;;;;2.00;1.80;;;;;;;;;;1035538;28;20017;-74
2023/10/21 02:00:20;;;;;;;0.20;0.20;;;;;;;;;;1035741;28;20040;-74
2023/10/21 02:00:53;;;;;;;1.73;1.63;;;;;;;;;;1036871;28;20573;-74
2023/10/21 02:01:24;;;;;;;9.63;3.63;;;;;;;;;;1038530;28;20434;-74
2023/10/21 02:01:55;;;;;;;2.60;2.40;;;;;;;;;;1038448;28;20025;-74
2023/10/21 02:02:28;;;;;;;3.05;2.20;;;;;;;;;;1037403;28;20048;-75
2023/10/21 02:02:59;;;;;;;5.03;1.92;;;;;;;;;;1039633;28;20044;-74
2023/10/21 02:03:30;;;;;;;5.25;3.70;;;;;;;;;;1039141;28;20044;-74
2023/10/21 02:04:01;;;;;;;0.85;0.85;;;;;;;;;;1039887;28;20028;-74
2023/10/21 02:04:32;;;;;;;1.45;0.93;;;;;;;;;;1038209;28;20424;-74
2023/10/21 02:05:04;;;;;;;1.65;0.68;;;;;;;;;;1038278;28;20029;-73
2023/10/21 02:05:38;;;;;;;0.95;0.95;;;;;;;;;;1038602;28;20116;-74
2023/10/21 02:06:09;;;;;;;6.45;1.65;;;;;;;;;;1038484;28;20108;-74
2023/10/21 02:06:40;;;;;;;1.45;1.35;;;;;;;;;;1037784;28;20067;-74
2023/10/21 02:07:11;;;;;;;0.93;0.93;;;;;;;;;;1042355;28;20439;-74
2023/10/21 02:07:42;;;;;;;0.98;0.98;;;;;;;;;;1042500;28;20114;-75
2023/10/21 02:08:13;;;;;;;1.02;0.98;;;;;;;;;;1042107;28;20060;-74
2023/10/21 02:08:44;;;;;;;1.10;1.10;;;;;;;;;;1042506;28;20111;-74
2023/10/21 02:09:15;;;;;;;2.05;1.45;;;;;;;;;;1035989;28;20539;-74
2023/10/21 02:09:48;;;;;;;0.60;0.60;;;;;;;;;;1035637;28;20437;-75
2023/10/21 02:10:19;;;;;;;1.30;1.05;;;;;;;;;;1034922;28;20028;-74
2023/10/21 02:10:50;;;;;;;1.05;1.02;;;;;;;;;;1039496;28;20029;-74
2023/10/21 02:11:22;;;;;;;2.65;2.15;;;;;;;;;;1037870;28;20025;-74
2023/10/21 02:11:54;;;;;;;1.58;1.48;;;;;;;;;;1034553;28;20022;-74
2023/10/21 02:12:25;;;;;;;0.35;0.35;;;;;;;;;;1034442;28;20076;-74
2023/10/21 02:12:58;;;;;;;8.43;4.38;;;;;;;;;;1036676;28;20065;-74
2023/10/21 02:13:32;;;;;;;15.70;1.38;;;;;;;;;;1032175;28;20029;-74
2023/10/21 02:14:03;;;;;;;3.90;2.05;;;;;;;;;;1031085;28;20145;-74
2023/10/21 02:14:34;;;;;;;1.25;1.15;;;;;;;;;;1031544;28;20026;-74
2023/10/21 02:15:17;;;;;;;3.20;3.00;;;;;;;;;;1030496;28;20657;-74
2023/10/21 02:15:50;;;;;;;1.52;1.42;;;;;;;;;;1035197;28;20026;-74
2023/10/21 02:16:21;;;;;;;2.03;1.92;;;;;;;;;;1039248;28;20026;-74
2023/10/21 02:16:55;;;;;;;4.20;2.03;;;;;;;;;;1038177;28;20021;-74
2023/10/21 02:17:26;;;;;;;3.90;1.20;;;;;;;;;;1036555;28;20052;-74
2023/10/21 02:17:56;;;;;;;1.05;1.02;;;;;;;;;;1036002;28;20067;-74
2023/10/21 02:18:27;;;;;;;1.23;1.15;;;;;;;;;;1036972;28;20034;-74
2023/10/21 02:18:58;;;;;;;1.73;1.63;;;;;;;;;;1036517;28;20025;-74
2023/10/21 02:19:29;;;;;;;2.50;1.23;;;;;;;;;;1034418;28;20029;-74
2023/10/21 02:19:59;;;;;;;0.85;0.57;;;;;;;;;;1035441;28;20057;-74
2023/10/21 02:20:30;;;;;;;0.68;0.68;;;;;;;;;;1029656;28;20081;-74
2023/10/21 02:21:04;;;;;;;1.20;1.05;;;;;;;;;;1034511;28;20032;-74
2023/10/21 02:21:35;;;;;;;1.92;0.73;;;;;;;;;;1038644;28;20037;-74
2023/10/21 02:22:05;;;;;;;10.50;2.17;;;;;;;;;;1036403;28;20022;-74
2023/10/21 02:22:36;;;;;;;1.33;1.25;;;;;;;;;;1033040;28;20086;-74
2023/10/21 02:23:07;;;;;;;0.90;0.90;;;;;;;;;;1034657;28;20030;-74
2023/10/21 02:23:37;;;;;;;0.65;0.32;;;;;;;;;;1034222;28;20445;-74
2023/10/21 02:24:08;;;;;;;0.73;0.65;;;;;;;;;;1034286;28;20022;-74
2023/10/21 02:24:41;;;;;;;14.90;1.90;;;;;;;;;;1037671;28;20036;-74
2023/10/21 02:25:13;;;;;;;1.88;1.48;;;;;;;;;;1038759;28;20036;-74
2023/10/21 02:25:44;;;;;;;5.72;1.70;;;;;;;;;;1038468;28;20036;-74
2023/10/21 02:26:16;;;;;;;0.40;0.40;;;;;;;;;;1038806;28;20452;-74
2023/10/21 02:26:49;;;;;;;0.82;0.80;;;;;;;;;;1041397;28;20043;-74
2023/10/21 02:27:21;;;;;;;0.80;0.80;;;;;;;;;;1037647;28;20067;-73
2023/10/21 02:27:53;;;;;;;1.75;1.65;;;;;;;;;;1037154;28;20048;-73
2023/10/21 02:28:23;;;;;;;2.08;1.52;;;;;;;;;;1033164;28;20025;-73
2023/10/21 02:29:00;;;;;;;4.43;2.95;;;;;;;;;;1036690;28;20025;-73
2023/10/21 02:29:31;;;;;;;0.20;0.20;;;;;;;;;;1038429;28;20021;-73
2023/10/21 02:30:04;;;;;;;7.82;2.03;;;;;;;;;;1039980;28;20513;-73
2023/10/21 02:30:36;;;;;;;1.52;1.42;;;;;;;;;;1037281;28;20048;-74
2023/10/21 02:31:07;;;;;;;7.57;1.65;;;;;;;;;;1038696;28;20028;-74
2023/10/21 02:31:37;;;;;;;1.05;1.05;;;;;;;;;;1041909;28;20036;-73
2023/10/21 02:32:08;;;;;;;1.17;1.00;;;;;;;;;;1039724;28;20416;-74
2023/10/21 02:32:42;;;;;;;1.55;1.45;;;;;;;;;;1039821;28;20028;-74
2023/10/21 02:33:13;;;;;;;1.60;1.50;;;;;;;;;;1036525;28;20517;-74
2023/10/21 02:33:43;;;;;;;4.50;3.10;;;;;;;;;;1034811;28;20107;-74
2023/10/21 02:34:14;;;;;;;5.00;2.22;;;;;;;;;;1038074;28;20121;-74
2023/10/21 02:34:45;;;;;;;4.22;0.77;;;;;;;;;;1038607;28;20107;-74
2023/10/21 02:35:15;;;;;;;4.60;3.85;;;;;;;;;;1039440;28;20033;-74
2023/10/21 02:35:50;;;;;;;8.77;3.00;;;;;;;;;;1041053;28;20060;-74
2023/10/21 02:36:20;;;;;;;2.28;2.08;;;;;;;;;;1040057;28;20422;-74
2023/10/21 02:36:51;;;;;;;0.73;0.73;;;;;;;;;;1037892;28;20104;-74
2023/10/21 02:37:22;;;;;;;3.97;2.95;;;;;;;;;;1039436;28;20079;-74
2023/10/21 02:37:53;;;;;;;6.55;3.20;;;;;;;;;;1035949;28;20026;-74
2023/10/21 02:38:29;;;;;;;2.03;1.90;;;;;;;;;;1036268;28;20113;-74
2023/10/21 02:38:59;;;;;;;2.55;2.35;;;;;;;;;;1034545;28;20026;-75
2023/10/21 02:39:30;;;;;;;2.65;2.45;;;;;;;;;;1038266;28;20025;-74
2023/10/21 02:40:03;;;;;;;15.65;6.70;;;;;;;;;;1033284;28;20041;-74
2023/10/21 02:40:34;;;;;;;6.45;4.38;;;;;;;;;;1034715;28;20030;-74
2023/10/21 02:41:05;;;;;;;1.98;1.75;;;;;;;;;;1038112;28;20051;-74
2023/10/21 02:41:37;;;;;;;4.85;3.78;;;;;;;;;;1038570;28;20443;-74
2023/10/21 02:42:07;;;;;;;4.32;3.15;;;;;;;;;;1042304;28;20036;-74
2023/10/21 02:42:38;;;;;;;0.60;0.60;;;;;;;;;;1042218;28;20028;-74
2023/10/21 02:43:11;;;;;;;2.13;1.85;;;;;;;;;;1041448;28;20111;-74
2023/10/21 02:43:42;;;;;;;0.88;0.80;;;;;;;;;;1037559;28;20033;-73
2023/10/21 02:44:13;;;;;;;0.77;0.77;;;;;;;;;;1038469;28;20025;-73
2023/10/21 02:44:44;;;;;;;0.68;0.68;;;;;;;;;;1037213;28;20041;-73
2023/10/21 02:45:17;;;;;;;0.45;0.45;;;;;;;;;;1039012;28;20113;-74
2023/10/21 02:45:48;;;;;;;1.67;1.58;;;;;;;;;;1041200;28;20025;-74
2023/10/21 02:46:19;;;;;;;1.15;1.05;;;;;;;;;;1039372;28;20026;-74
2023/10/21 02:46:49;;;;;;;0.65;0.65;;;;;;;;;;1039389;28;20037;-74
2023/10/21 02:47:20;;;;;;;13.85;4.38;;;;;;;;;;1038801;28;20020;-74
2023/10/21 02:47:52;;;;;;;0.82;0.82;;;;;;;;;;1037943;28;20091;-74
2023/10/21 02:48:23;;;;;;;1.30;1.08;;;;;;;;;;1033383;28;20045;-74
2023/10/21 02:48:58;;;;;;;4.15;2.72;;;;;;;;;;1038533;28;20025;-74
2023/10/21 02:49:29;;;;;;;4.72;1.85;;;;;;;;;;1037880;28;20560;-74
2023/10/21 02:49:59;;;;;;;2.05;1.85;;;;;;;;;;1036712;28;20442;-74
2023/10/21 02:50:30;;;;;;;9.82;1.52;;;;;;;;;;1038147;28;20035;-74
2023/10/21 02:51:11;;;;;;;5.72;2.08;;;;;;;;;;1038469;28;20037;-74
2023/10/21 02:51:41;;;;;;;4.88;3.03;;;;;;;;;;1037627;28;20072;-74
2023/10/21 02:52:13;;;;;;;3.78;3.47;;;;;;;;;;1038533;28;20068;-74
2023/10/21 02:52:44;;;;;;;0.90;0.90;;;;;;;;;;1041075;28;20025;-74
2023/10/21 02:53:14;;;;;;;2.80;1.55;;;;;;;;;;1040853;28;20029;-74
2023/10/21 02:53:45;;;;;;;3.08;2.20;;;;;;;;;;1040359;28;20028;-74
2023/10/21 02:54:16;;;;;;;2.45;1.45;;;;;;;;;;1037396;28;20160;-75
2023/10/21 02:54:49;;;;;;;2.17;1.92;;;;;;;;;;1035869;28;20037;-74
2023/10/21 02:55:25;;;;;;;0.73;0.73;;;;;;;;;;1036743;28;20029;-74
2023/10/21 02:55:57;;;;;;;3.17;2.03;;;;;;;;;;1036845;28;20025;-75
2023/10/21 02:56:31;;;;;;;2.08;1.90;;;;;;;;;;1038402;28;20029;-74
2023/10/21 02:57:01;;;;;;;5.55;2.33;;;;;;;;;;1039831;28;20025;-74
2023/10/21 02:57:32;;;;;;;1.15;1.10;;;;;;;;;;1039071;28;20172;-74
2023/10/21 02:58:06;;;;;;;0.95;0.88;;;;;;;;;;1038510;28;20115;-74
2023/10/21 02:58:37;;;;;;;2.72;2.47;;;;;;;;;;1038329;28;20152;-74
2023/10/21 02:59:09;;;;;;;0.40;0.40;;;;;;;;;;1039884;28;20115;-74
2023/10/21 02:59:40;;;;;;;2.30;2.10;;;;;;;;;;1039759;28;20028;-74
2023/10/21 03:00:21;;;;;;;1.83;0.75;;;;;;;;;;1038779;28;20112;-74
2023/10/21 03:00:52;;;;;;;2.65;2.38;;;;;;;;;;1036623;28;20124;-74
2023/10/21 03:01:25;;;;;;;2.20;1.00;;;;;;;;;;1034187;28;20096;-74
2023/10/21 03:01:56;;;;;;;2.40;1.63;;;;;;;;;;1035025;28;20021;-74
2023/10/21 03:02:27;;;;;;;0.70;0.70;;;;;;;;;;1036746;28;20030;-74
2023/10/21 03:02:59;;;;;;;0.52;0.50;;;;;;;;;;1033032;28;20065;-74
2023/10/21 03:03:32;;;;;;;2.17;0.90;;;;;;;;;;1029179;28;20512;-75
2023/10/21 03:04:03;;;;;;;5.47;1.55;;;;;;;;;;1027085;28;20121;-75
2023/10/21 03:04:35;;;;;;;4.35;2.83;;;;;;;;;;1025778;28;20027;-75
2023/10/21 03:05:07;;;;;;;5.57;4.30;;;;;;;;;;1027551;28;20127;-75
2023/10/21 03:05:39;;;;;;;3.53;1.83;;;;;;;;;;1025393;28;20094;-75
2023/10/21 03:06:13;;;;;;;3.75;2.08;;;;;;;;;;1028817;28;20022;-75
2023/10/21 03:06:44;;;;;;;5.72;2.08;;;;;;;;;;1034480;28;20148;-75
2023/10/21 03:07:15;;;;;;;2.20;1.52;;;;;;;;;;1034205;28;20075;-75
2023/10/21 03:07:49;;;;;;;2.72;2.55;;;;;;;;;;1038217;28;20026;-75
2023/10/21 03:08:20;;;;;;;1.85;1.30;;;;;;;;;;1036973;28;20010;-74